Time;durP1;ratioP1;P1;durP2;ratioP2;P2;SDS_P1;SDS_P2;PMS_P1;PMS_P2;Temp;Humidity;BMP_temperature;BMP_pressure;BME280_temperature;BME280_humidity;BME280_pressure;Samples;Min_cycle;Max_cycle;Signal;HPM_P1;HPM_P2
2022/10/15 00:03:42;;;;;;;25.17;17.57;;;8.60;99.90;;;;;;8388143;28;20272;-69
2022/10/15 00:07:43;;;;;;;29.33;21.30;;;8.80;99.90;;;;;;8393342;28;20189;-70
2022/10/15 00:11:44;;;;;;;20.80;15.80;;;8.90;99.90;;;;;;8392751;28;20187;-70
2022/10/15 00:15:45;;;;;;;20.37;15.93;;;9.00;99.90;;;;;;8391430;28;20211;-70
2022/10/15 00:19:45;;;;;;;23.27;16.67;;;9.10;99.90;;;;;;8396206;28;20192;-71
2022/10/15 00:23:47;;;;;;;24.03;18.00;;;9.20;99.90;;;;;;8392148;28;20219;-69
2022/10/15 00:27:48;;;;;;;29.37;21.53;;;9.20;99.90;;;;;;8408979;28;20176;-69
2022/10/15 00:31:49;;;;;;;29.57;19.80;;;9.30;99.90;;;;;;8408590;28;20280;-69
2022/10/15 00:36:01;;;;;;;27.40;18.83;;;9.40;99.90;;;;;;8409418;28;20204;-69
2022/10/15 00:40:02;;;;;;;28.70;20.77;;;9.40;99.90;;;;;;8392225;28;20199;-69
2022/10/15 00:44:24;;;;;;;24.27;18.07;;;9.40;99.90;;;;;;8393076;28;20629;-70
2022/10/15 00:48:25;;;;;;;21.53;16.37;;;9.40;99.90;;;;;;8407820;28;20192;-70
2022/10/15 00:52:52;;;;;;;22.80;16.13;;;9.40;99.90;;;;;;8387539;28;20193;-70
2022/10/15 00:56:54;;;;;;;30.63;22.00;;;9.50;99.90;;;;;;8395303;28;20285;-71
2022/10/15 01:00:55;;;;;;;30.50;21.37;;;9.60;99.90;;;;;;8396956;28;20203;-70
2022/10/15 01:04:55;;;;;;;35.67;23.43;;;9.60;99.90;;;;;;8393362;28;20461;-70
2022/10/15 01:08:56;;;;;;;45.23;28.17;;;9.70;99.90;;;;;;8389068;28;20207;-69
2022/10/15 01:13:02;;;;;;;51.87;31.70;;;9.70;99.90;;;;;;8408921;28;20267;-70
2022/10/15 01:17:28;;;;;;;43.93;26.17;;;9.60;99.90;;;;;;8409262;28;20274;-70
2022/10/15 01:21:48;;;;;;;40.67;24.43;;;9.60;99.90;;;;;;8389006;28;20181;-71
2022/10/15 01:26:04;;;;;;;28.77;20.93;;;9.50;99.90;;;;;;8407263;28;20193;-70
2022/10/15 01:30:20;;;;;;;26.23;18.40;;;9.40;99.90;;;;;;8393776;28;20201;-70
2022/10/15 01:34:33;;;;;;;33.17;23.80;;;9.40;99.90;;;;;;8394540;28;20208;-69
2022/10/15 01:39:11;;;;;;;29.93;21.43;;;9.40;99.90;;;;;;8398422;28;20182;-69
2022/10/15 01:43:18;;;;;;;35.00;23.30;;;9.40;99.90;;;;;;8336372;28;20221;-70
2022/10/15 01:47:23;;;;;;;38.50;25.80;;;9.50;99.90;;;;;;8413806;28;20181;-70
2022/10/15 01:51:27;;;;;;;35.27;23.93;;;9.50;99.90;;;;;;8416438;28;20194;-73
2022/10/15 01:55:29;;;;;;;44.37;29.50;;;9.60;99.90;;;;;;8415737;28;20227;-69
2022/10/15 01:59:31;;;;;;;35.77;23.57;;;9.60;99.90;;;;;;8410057;28;20212;-69
2022/10/15 02:03:46;;;;;;;32.53;23.57;;;9.70;99.90;;;;;;8398246;28;20200;-69
2022/10/15 02:08:16;;;;;;;35.37;25.67;;;9.80;99.90;;;;;;8411148;28;20189;-68
2022/10/15 02:12:24;;;;;;;40.20;26.60;;;9.80;99.90;;;;;;8410651;28;20289;-70
2022/10/15 02:17:07;;;;;;;33.70;24.50;;;9.90;99.90;;;;;;8413883;28;20217;-71
2022/10/15 02:21:21;;;;;;;28.00;19.37;;;10.00;99.90;;;;;;8408701;28;20202;-70
2022/10/15 02:25:24;;;;;;;31.73;22.83;;;10.00;99.90;;;;;;8413133;28;20192;-71
2022/10/15 02:29:29;;;;;;;40.83;25.20;;;10.00;99.90;;;;;;8411981;28;20198;-70
2022/10/15 02:33:32;;;;;;;31.10;22.03;;;10.10;99.90;;;;;;8412312;28;20209;-71
2022/10/15 02:37:34;;;;;;;30.53;20.27;;;10.10;99.90;;;;;;8412811;28;20219;-69
2022/10/15 02:41:35;;;;;;;29.60;22.27;;;10.10;99.90;;;;;;8414201;28;20193;-70
2022/10/15 02:45:37;;;;;;;30.20;21.40;;;10.10;99.90;;;;;;8394382;28;20199;-71
2022/10/15 02:49:38;;;;;;;35.77;24.30;;;10.20;99.90;;;;;;8412122;28;20218;-70
2022/10/15 02:53:38;;;;;;;32.17;22.37;;;10.20;99.90;;;;;;8408057;28;20194;-71
2022/10/15 02:57:39;;;;;;;27.93;20.10;;;10.20;99.90;;;;;;8409342;28;20237;-70
2022/10/15 03:01:40;;;;;;;28.10;20.77;;;10.20;99.90;;;;;;8394532;28;20210;-70
2022/10/15 03:05:42;;;;;;;28.77;21.50;;;10.20;99.90;;;;;;8408738;28;20204;-71
2022/10/15 03:09:43;;;;;;;28.87;21.40;;;10.20;99.90;;;;;;8409577;28;20219;-70
2022/10/15 03:13:43;;;;;;;32.07;22.03;;;10.20;99.90;;;;;;8395926;28;20707;-70
2022/10/15 03:17:44;;;;;;;32.03;22.37;;;10.20;99.90;;;;;;8395083;28;20255;-70
2022/10/15 03:21:45;;;;;;;31.13;21.33;;;10.30;99.90;;;;;;8412149;28;20191;-70
2022/10/15 03:25:46;;;;;;;27.00;21.33;;;10.30;99.90;;;;;;8402419;28;20255;-71
2022/10/15 03:29:46;;;;;;;27.50;20.03;;;10.30;99.90;;;;;;8410394;28;20185;-70
2022/10/15 03:33:47;;;;;;;37.43;24.90;;;10.30;99.90;;;;;;8394751;28;20229;-70
2022/10/15 03:37:48;;;;;;;32.57;23.43;;;10.30;99.90;;;;;;8395252;28;20190;-69
2022/10/15 03:41:52;;;;;;;37.30;25.20;;;10.30;99.90;;;;;;8398724;28;20240;-69
2022/10/15 03:45:53;;;;;;;39.00;26.50;;;10.40;99.90;;;;;;8410622;28;20222;-69
2022/10/15 03:49:54;;;;;;;34.50;25.70;;;10.40;99.90;;;;;;8413645;28;20199;-69
2022/10/15 03:53:55;;;;;;;39.60;27.07;;;10.40;99.90;;;;;;8393701;28;20237;-69
2022/10/15 03:57:55;;;;;;;38.27;27.27;;;10.40;99.90;;;;;;8406171;28;20271;-71
2022/10/15 04:01:56;;;;;;;31.43;22.73;;;10.40;99.90;;;;;;8412626;28;20197;-70
2022/10/15 04:05:57;;;;;;;36.73;24.60;;;10.40;99.90;;;;;;8410127;28;20245;-71
2022/10/15 04:09:58;;;;;;;30.53;22.00;;;10.40;99.90;;;;;;8412212;28;20190;-70
2022/10/15 04:13:58;;;;;;;24.97;20.07;;;10.40;99.90;;;;;;8393459;28;20207;-71
2022/10/15 04:17:59;;;;;;;39.97;25.63;;;10.40;99.90;;;;;;8410205;28;20198;-71
2022/10/15 04:22:00;;;;;;;36.07;26.43;;;10.40;99.90;;;;;;8409530;28;20183;-70
2022/10/15 04:26:01;;;;;;;32.17;22.93;;;10.40;99.90;;;;;;8410441;28;20206;-69
2022/10/15 04:30:02;;;;;;;28.70;20.57;;;10.50;99.90;;;;;;8405937;28;20234;-71
2022/10/15 04:34:03;;;;;;;27.00;19.90;;;10.50;99.90;;;;;;8409879;28;20218;-71
2022/10/15 04:38:04;;;;;;;31.30;22.87;;;10.50;99.90;;;;;;8391034;28;20214;-69
2022/10/15 04:42:05;;;;;;;28.70;21.83;;;10.50;99.90;;;;;;8386081;28;20188;-71
2022/10/15 04:46:07;;;;;;;33.90;23.30;;;10.50;99.90;;;;;;8398360;28;20200;-70
2022/10/15 04:50:08;;;;;;;28.87;20.23;;;10.50;99.90;;;;;;8408154;28;20202;-71
2022/10/15 04:54:09;;;;;;;27.10;20.70;;;10.50;99.90;;;;;;8409215;28;20696;-70
2022/10/15 04:58:09;;;;;;;33.47;22.50;;;10.50;99.90;;;;;;8395919;28;20256;-69
2022/10/15 05:02:10;;;;;;;30.53;21.97;;;10.50;99.90;;;;;;8388157;28;20200;-70
2022/10/15 05:06:17;;;;;;;30.83;21.50;;;10.50;99.90;;;;;;8410828;28;20253;-70
2022/10/15 05:10:18;;;;;;;27.73;20.80;;;10.50;99.90;;;;;;8413984;28;20183;-71
2022/10/15 05:14:18;;;;;;;30.37;21.53;;;10.50;99.90;;;;;;8418486;28;20196;-70
2022/10/15 05:18:19;;;;;;;30.37;21.93;;;10.50;99.90;;;;;;8414044;28;20193;-71
2022/10/15 05:22:20;;;;;;;32.13;21.80;;;10.50;99.90;;;;;;8399520;28;20180;-70
2022/10/15 05:26:23;;;;;;;30.20;23.37;;;10.50;99.90;;;;;;8398499;28;20241;-71
2022/10/15 05:30:23;;;;;;;31.13;20.77;;;10.50;99.90;;;;;;8397730;28;20230;-70
2022/10/15 05:34:27;;;;;;;24.43;17.30;;;10.60;99.90;;;;;;8398057;28;20208;-71
2022/10/15 05:38:28;;;;;;;30.57;20.47;;;10.60;99.90;;;;;;8401486;28;20269;-69
2022/10/15 05:42:28;;;;;;;27.13;19.80;;;10.60;99.90;;;;;;8398231;28;20181;-71
2022/10/15 05:46:29;;;;;;;27.37;20.87;;;10.70;99.90;;;;;;8396086;28;20202;-70
2022/10/15 05:50:30;;;;;;;26.03;18.10;;;10.70;99.90;;;;;;8397061;28;20195;-71
2022/10/15 05:54:31;;;;;;;23.07;16.40;;;10.80;99.90;;;;;;8413949;28;20210;-71
2022/10/15 05:58:33;;;;;;;28.23;20.57;;;10.90;99.90;;;;;;8394992;28;20293;-70
2022/10/15 06:02:34;;;;;;;24.20;17.50;;;10.90;99.90;;;;;;8412193;28;20204;-70
2022/10/15 06:06:34;;;;;;;18.07;13.93;;;11.00;99.90;;;;;;8410076;28;20185;-71
2022/10/15 06:10:36;;;;;;;24.63;18.00;;;11.10;99.90;;;;;;8412997;28;20189;-71
2022/10/15 06:14:37;;;;;;;18.93;15.67;;;11.20;99.90;;;;;;8413547;28;20204;-71
2022/10/15 06:18:38;;;;;;;28.07;21.60;;;11.30;99.90;;;;;;8397886;28;20187;-70
2022/10/15 06:22:39;;;;;;;28.70;21.77;;;11.40;99.90;;;;;;8393795;28;20381;-70
2022/10/15 06:26:39;;;;;;;26.07;19.03;;;11.40;99.90;;;;;;8412734;28;20192;-70
2022/10/15 06:30:41;;;;;;;20.53;16.33;;;11.50;99.90;;;;;;8410329;28;20194;-70
2022/10/15 06:34:43;;;;;;;18.97;15.20;;;11.60;99.90;;;;;;8413390;28;20227;-71
2022/10/15 06:38:46;;;;;;;19.57;16.33;;;11.60;99.90;;;;;;8393673;28;20184;-70
2022/10/15 06:42:47;;;;;;;17.93;14.33;;;11.70;99.90;;;;;;8394864;28;20238;-69
2022/10/15 06:46:47;;;;;;;15.80;12.43;;;11.70;99.90;;;;;;8396553;28;20189;-71
2022/10/15 06:50:48;;;;;;;15.50;12.13;;;11.80;99.90;;;;;;8395702;28;20184;-69
2022/10/15 06:54:49;;;;;;;17.80;14.07;;;11.90;99.90;;;;;;8411826;28;20204;-71
2022/10/15 06:58:50;;;;;;;15.13;12.40;;;12.00;99.90;;;;;;8407687;28;20231;-70
2022/10/15 07:02:51;;;;;;;14.90;12.03;;;12.10;99.90;;;;;;8411937;28;20677;-70
2022/10/15 07:06:52;;;;;;;14.60;11.43;;;12.20;99.90;;;;;;8391657;28;20188;-70
2022/10/15 07:10:52;;;;;;;14.37;9.97;;;12.30;99.90;;;;;;8410974;28;20191;-70
2022/10/15 07:14:53;;;;;;;10.47;9.13;;;12.40;99.90;;;;;;8394913;28;20564;-71
2022/10/15 07:18:54;;;;;;;10.43;9.33;;;12.60;99.90;;;;;;8411031;28;20176;-70
2022/10/15 07:23:01;;;;;;;10.87;9.67;;;12.70;99.90;;;;;;8394163;28;20188;-71
2022/10/15 07:27:02;;;;;;;14.10;10.67;;;12.80;99.90;;;;;;8408533;28;20188;-71
2022/10/15 07:31:05;;;;;;;19.30;14.10;;;12.80;99.90;;;;;;8410103;28;20192;-70
2022/10/15 07:35:06;;;;;;;13.50;11.83;;;12.80;99.90;;;;;;8409510;28;20204;-70
2022/10/15 07:39:08;;;;;;;19.17;13.53;;;12.90;99.90;;;;;;8394326;28;20188;-70
2022/10/15 07:43:09;;;;;;;14.47;11.13;;;13.00;99.90;;;;;;8392881;28;20259;-71
2022/10/15 07:47:10;;;;;;;13.20;11.70;;;13.10;99.90;;;;;;8409992;28;20241;-72
2022/10/15 07:51:11;;;;;;;15.33;11.83;;;13.20;99.90;;;;;;8410138;28;20180;-69
2022/10/15 07:55:12;;;;;;;13.23;10.17;;;13.40;99.90;;;;;;8393794;28;20328;-69
2022/10/15 07:59:13;;;;;;;14.83;11.63;;;13.70;99.90;;;;;;8391001;28;20341;-69
2022/10/15 08:03:14;;;;;;;13.07;10.90;;;13.90;99.90;;;;;;8393124;28;20196;-70
2022/10/15 08:07:15;;;;;;;11.97;9.63;;;14.20;99.90;;;;;;8393805;28;20206;-76
2022/10/15 08:11:16;;;;;;;14.07;8.73;;;14.40;99.90;;;;;;8409139;28;20176;-69
2022/10/15 08:15:17;;;;;;;11.87;8.60;;;14.60;99.90;;;;;;8394575;28;20204;-70
2022/10/15 08:19:18;;;;;;;9.97;8.47;;;14.80;99.90;;;;;;8410214;28;20183;-69
2022/10/15 08:23:18;;;;;;;9.30;8.30;;;15.00;99.90;;;;;;8408486;28;20187;-69
2022/10/15 08:27:19;;;;;;;8.60;7.77;;;15.10;99.90;;;;;;8407874;28;20384;-69
2022/10/15 08:31:20;;;;;;;10.00;7.63;;;15.20;99.90;;;;;;8390480;28;20253;-69
2022/10/15 08:35:21;;;;;;;10.43;8.57;;;15.30;99.90;;;;;;8409641;28;20291;-69
2022/10/15 08:39:22;;;;;;;9.93;7.70;;;15.40;99.90;;;;;;8407344;28;20184;-70
2022/10/15 08:43:38;;;;;;;10.73;8.67;;;15.60;99.90;;;;;;8392252;28;20335;-68
2022/10/15 08:47:46;;;;;;;14.27;11.17;;;15.80;99.90;;;;;;8392779;28;20218;-67
2022/10/15 08:51:53;;;;;;;10.63;8.57;;;16.00;99.90;;;;;;8397317;28;20235;-67
2022/10/15 08:56:02;;;;;;;10.00;8.77;;;16.30;99.90;;;;;;8413918;28;20298;-69
2022/10/15 09:00:23;;;;;;;11.83;9.43;;;16.40;99.90;;;;;;8392881;28;20337;-69
2022/10/15 09:04:52;;;;;;;12.50;9.47;;;16.50;1.00;;;;;;8397344;28;20283;-67
2022/10/15 09:09:01;;;;;;;9.83;7.97;;;16.60;1.00;;;;;;8396630;28;20285;-69
2022/10/15 09:13:12;;;;;;;13.47;10.60;;;16.80;1.00;;;;;;8396599;28;20232;-68
2022/10/15 09:17:21;;;;;;;14.00;10.27;;;16.90;1.00;;;;;;8398114;28;20212;-70
2022/10/15 09:21:27;;;;;;;11.00;9.43;;;16.80;99.90;;;;;;8416024;28;20225;-67
2022/10/15 09:25:35;;;;;;;11.97;9.97;;;16.90;1.00;;;;;;8397242;28;20184;-68
2022/10/15 09:29:57;;;;;;;11.93;9.80;;;16.90;99.90;;;;;;8413898;28;20197;-69
2022/10/15 09:34:18;;;;;;;13.10;10.23;;;16.90;99.90;;;;;;8397755;28;20210;-69
2022/10/15 09:38:22;;;;;;;11.87;10.20;;;17.10;99.90;;;;;;8412506;28;20196;-68
2022/10/15 09:42:29;;;;;;;15.40;11.43;;;17.30;99.90;;;;;;8414231;28;20184;-69
2022/10/15 09:46:30;;;;;;;11.53;9.17;;;17.60;99.90;;;;;;8410927;28;20185;-69
2022/10/15 09:50:41;;;;;;;12.37;10.23;;;17.80;99.90;;;;;;8412237;28;20238;-70
2022/10/15 09:55:01;;;;;;;13.53;10.40;;;18.10;57.10;;;;;;8397259;28;20212;-69
2022/10/15 09:59:03;;;;;;;12.30;9.37;;;18.20;1.00;;;;;;8407510;28;20542;-68
2022/10/15 10:03:06;;;;;;;10.93;9.53;;;18.40;1.00;;;;;;8414957;28;20219;-69
2022/10/15 10:07:07;;;;;;;12.13;9.63;;;18.60;1.00;;;;;;8395747;28;20184;-67
2022/10/15 10:11:11;;;;;;;11.40;8.17;;;18.70;1.00;;;;;;8412317;28;20193;-70
2022/10/15 10:15:21;;;;;;;11.50;8.00;;;18.70;1.00;;;;;;8413174;28;20236;-70
2022/10/15 10:19:22;;;;;;;9.23;8.17;;;18.90;1.00;;;;;;8410985;28;20181;-73
2022/10/15 10:23:27;;;;;;;8.73;7.43;;;19.30;1.00;;;;;;8397161;28;20195;-68
2022/10/15 10:27:29;;;;;;;7.87;5.90;;;19.50;99.90;;;;;;8411728;28;20188;-70
2022/10/15 10:31:35;;;;;;;7.30;5.97;;;19.50;1.00;;;;;;8410709;28;20208;-68
2022/10/15 10:35:49;;;;;;;3.00;2.47;;;19.70;99.90;;;;;;8413304;28;20394;-69
2022/10/15 10:39:55;;;;;;;3.07;1.80;;;19.80;99.90;;;;;;8392806;28;20180;-69
2022/10/15 10:43:56;;;;;;;1.60;1.30;;;19.70;99.90;;;;;;8412685;28;20177;-69
2022/10/15 10:47:59;;;;;;;2.27;1.60;;;19.50;99.90;;;;;;8410929;28;20176;-68
2022/10/15 10:52:00;;;;;;;1.70;1.30;;;19.60;99.90;;;;;;8410463;28;20237;-69
2022/10/15 10:56:04;;;;;;;1.13;0.93;;;19.70;99.90;;;;;;8409899;28;20215;-69
2022/10/15 11:00:06;;;;;;;2.40;0.93;;;20.00;99.90;;;;;;8406341;28;20200;-67
2022/10/15 11:04:22;;;;;;;0.73;0.67;;;20.00;99.90;;;;;;8409872;28;20193;-68
2022/10/15 11:08:39;;;;;;;1.10;0.70;;;20.00;99.90;;;;;;8409692;28;20212;-68
2022/10/15 11:13:18;;;;;;;0.90;0.60;;;19.80;99.90;;;;;;8409915;28;20185;-67
2022/10/15 11:17:40;;;;;;;0.90;0.60;;;19.50;99.90;;;;;;8375479;28;20253;-68
2022/10/15 11:21:53;;;;;;;0.60;0.40;;;19.20;99.90;;;;;;8393678;28;20187;-68
2022/10/15 11:26:12;;;;;;;0.60;0.37;;;18.90;99.90;;;;;;8409811;28;20280;-68
2022/10/15 11:30:16;;;;;;;0.80;0.40;;;18.90;1.00;;;;;;8409050;28;20192;-69
2022/10/15 11:34:43;;;;;;;0.80;0.30;;;19.00;1.00;;;;;;8392877;28;20188;-67
2022/10/15 11:38:52;;;;;;;0.50;0.40;;;18.80;1.00;;;;;;8391186;28;20224;-68
2022/10/15 11:43:03;;;;;;;2.20;0.53;;;18.50;1.00;;;;;;8409233;28;20178;-68
2022/10/15 11:47:16;;;;;;;0.90;0.80;;;18.20;99.90;;;;;;8390557;28;20315;-67
2022/10/15 11:51:52;;;;;;;1.00;0.80;;;18.00;99.90;;;;;;8391541;28;20192;-69
2022/10/15 11:55:56;;;;;;;1.10;0.60;;;17.90;1.00;;;;;;8396892;28;20295;-69
2022/10/15 12:00:13;;;;;;;1.40;0.77;;;18.30;1.00;;;;;;8407129;28;20210;-69
2022/10/15 12:04:54;;;;;;;1.03;0.70;;;18.80;99.90;;;;;;8408714;28;20199;-68
2022/10/15 12:08:56;;;;;;;1.00;0.73;;;19.20;90.20;;;;;;8408881;28;20184;-69
2022/10/15 12:13:35;;;;;;;2.27;1.10;;;19.20;1.00;;;;;;8392206;28;20231;-68
2022/10/15 12:18:02;;;;;;;1.00;0.63;;;19.10;1.00;;;;;;8405254;28;20219;-69
2022/10/15 12:22:10;;;;;;;1.50;0.70;;;19.40;1.00;;;;;;8390601;28;20185;-69
2022/10/15 12:26:22;;;;;;;0.90;0.73;;;19.40;1.00;;;;;;8390483;28;20199;-68
2022/10/15 12:30:25;;;;;;;0.80;0.67;;;19.10;1.00;;;;;;8398460;28;20196;-68
2022/10/15 12:34:39;;;;;;;1.20;0.70;;;18.70;1.00;;;;;;8409355;28;20226;-68
2022/10/15 12:38:50;;;;;;;1.87;0.90;;;18.50;37.70;;;;;;8407642;28;20200;-68
2022/10/15 12:43:02;;;;;;;0.90;0.67;;;18.30;95.20;;;;;;8393350;28;20184;-68
2022/10/15 12:47:03;;;;;;;1.67;0.93;;;18.40;99.90;;;;;;8391402;28;20193;-68
2022/10/15 12:51:18;;;;;;;2.40;0.90;;;18.40;99.90;;;;;;8408932;28;20188;-68
2022/10/15 12:55:22;;;;;;;0.80;0.60;;;18.50;99.90;;;;;;8408953;28;20254;-68
2022/10/15 12:59:52;;;;;;;1.10;0.80;;;18.60;99.90;;;;;;8405407;28;20236;-69
2022/10/15 13:03:55;;;;;;;1.00;0.63;;;18.50;85.80;;;;;;8393359;28;20400;-69
2022/10/15 13:07:58;;;;;;;1.70;0.70;;;18.50;26.20;;;;;;8390097;28;20199;-69
2022/10/15 13:12:01;;;;;;;1.73;0.80;;;18.40;82.50;;;;;;8391189;28;20185;-69
2022/10/15 13:16:07;;;;;;;0.80;0.73;;;18.30;99.90;;;;;;8385558;28;20216;-69
2022/10/15 13:20:26;;;;;;;1.23;0.90;;;18.20;99.90;;;;;;8409053;28;20176;-69
2022/10/15 13:24:29;;;;;;;0.97;0.80;;;18.20;99.90;;;;;;8387833;28;20193;-69
2022/10/15 13:28:33;;;;;;;1.17;1.00;;;18.20;99.90;;;;;;8408536;28;20185;-70
2022/10/15 13:32:49;;;;;;;1.13;0.93;;;18.20;40.30;;;;;;8410743;28;20176;-69
2022/10/15 13:36:51;;;;;;;0.77;0.70;;;18.20;84.10;;;;;;8399389;28;20212;-70
2022/10/15 13:40:53;;;;;;;1.30;0.90;;;18.10;99.90;;;;;;8410626;28;20200;-70
2022/10/15 13:45:02;;;;;;;1.10;0.80;;;18.10;99.90;;;;;;8396573;28;20192;-70
2022/10/15 13:49:10;;;;;;;0.97;0.80;;;18.10;99.90;;;;;;8413129;28;20196;-70
2022/10/15 13:53:25;;;;;;;1.37;1.00;;;18.10;99.90;;;;;;8410291;28;20184;-70
2022/10/15 13:57:25;;;;;;;1.47;1.00;;;18.20;99.90;;;;;;8412436;28;20568;-70
2022/10/15 14:01:28;;;;;;;1.27;0.87;;;18.50;99.90;;;;;;8396187;28;20478;-70
2022/10/15 14:05:29;;;;;;;1.27;1.10;;;18.70;81.10;;;;;;8415575;28;20195;-70
2022/10/15 14:09:36;;;;;;;2.20;1.20;;;18.70;1.00;;;;;;8396539;28;20216;-69
2022/10/15 14:13:46;;;;;;;1.23;0.90;;;18.60;21.60;;;;;;8396133;28;20192;-70
2022/10/15 14:17:50;;;;;;;1.00;0.90;;;18.50;99.90;;;;;;8411458;28;20209;-68
2022/10/15 14:21:51;;;;;;;1.40;0.97;;;18.40;99.90;;;;;;8394347;28;20195;-70
2022/10/15 14:25:58;;;;;;;2.13;1.20;;;18.20;99.90;;;;;;8396282;28;20246;-69
2022/10/15 14:30:01;;;;;;;1.40;1.00;;;18.10;99.90;;;;;;8394615;28;20335;-70
2022/10/15 14:34:02;;;;;;;1.10;0.77;;;17.90;99.90;;;;;;8410866;28;20192;-69
2022/10/15 14:38:07;;;;;;;2.23;1.13;;;17.80;99.90;;;;;;8397326;28;20212;-71
2022/10/15 14:42:30;;;;;;;1.33;0.93;;;17.60;99.90;;;;;;8410726;28;20412;-70
2022/10/15 14:46:40;;;;;;;1.27;0.93;;;17.50;1.00;;;;;;8410745;28;20189;-70
2022/10/15 14:50:43;;;;;;;1.40;1.00;;;17.40;1.00;;;;;;8410550;28;20232;-70
2022/10/15 14:54:50;;;;;;;1.27;1.00;;;17.30;1.00;;;;;;8395002;28;20208;-70
2022/10/15 14:58:55;;;;;;;0.90;0.70;;;17.20;32.80;;;;;;8409297;28;20322;-70
2022/10/15 15:02:58;;;;;;;1.53;1.30;;;17.10;99.90;;;;;;8408278;28;20303;-70
2022/10/15 15:06:59;;;;;;;1.23;1.13;;;17.00;99.90;;;;;;8409470;28;20249;-70
2022/10/15 15:11:03;;;;;;;1.60;1.00;;;16.90;99.90;;;;;;8407314;28;20181;-69
2022/10/15 15:15:23;;;;;;;1.70;1.60;;;16.90;1.00;;;;;;8408221;28;20353;-70
2022/10/15 15:19:24;;;;;;;1.50;1.40;;;16.80;99.90;;;;;;8393443;28;20173;-67
2022/10/15 15:23:26;;;;;;;2.87;1.80;;;16.60;99.90;;;;;;8409660;28;20207;-69
2022/10/15 15:27:30;;;;;;;1.87;1.50;;;16.50;1.00;;;;;;8393405;28;20331;-70
2022/10/15 15:31:32;;;;;;;1.93;1.60;;;16.40;1.00;;;;;;8390611;28;20267;-69
2022/10/15 15:35:52;;;;;;;1.87;1.40;;;16.30;10.10;;;;;;8412652;28;20208;-69
2022/10/15 15:39:54;;;;;;;1.67;1.40;;;16.10;1.00;;;;;;8411272;28;20478;-69
2022/10/15 15:43:55;;;;;;;2.23;2.03;;;15.90;1.00;;;;;;8394253;28;20177;-70
2022/10/15 15:47:57;;;;;;;2.90;1.67;;;15.80;99.90;;;;;;8391127;28;20275;-70
2022/10/15 15:51:58;;;;;;;2.07;1.60;;;15.70;99.90;;;;;;8388168;28;20192;-70
2022/10/15 15:55:59;;;;;;;1.77;1.40;;;15.70;99.90;;;;;;8407387;28;20212;-70
2022/10/15 16:00:00;;;;;;;2.10;1.40;;;15.60;99.90;;;;;;8407160;28;20199;-70
2022/10/15 16:04:00;;;;;;;1.93;1.70;;;15.50;99.90;;;;;;8392613;28;20200;-70
2022/10/15 16:08:01;;;;;;;2.43;1.80;;;15.40;99.90;;;;;;8390809;28;20189;-69
2022/10/15 16:12:02;;;;;;;2.50;1.90;;;15.20;1.00;;;;;;8408860;28;20622;-70
2022/10/15 16:16:04;;;;;;;2.60;2.00;;;15.10;99.90;;;;;;8392222;28;20198;-70
2022/10/15 16:20:05;;;;;;;1.70;1.57;;;15.00;1.00;;;;;;8408701;28;20271;-69
2022/10/15 16:24:06;;;;;;;2.17;1.67;;;14.90;99.90;;;;;;8389573;28;20196;-69
2022/10/15 16:28:07;;;;;;;2.30;2.03;;;14.80;1.00;;;;;;8391947;28;20196;-69
2022/10/15 16:32:08;;;;;;;2.03;1.60;;;14.60;1.00;;;;;;8410499;28;20276;-69
2022/10/15 16:36:09;;;;;;;2.47;1.80;;;14.40;1.00;;;;;;8408041;28;20200;-69
2022/10/15 16:40:10;;;;;;;2.33;1.80;;;14.30;32.20;;;;;;8389271;28;20246;-71
2022/10/15 16:44:11;;;;;;;2.40;2.00;;;14.20;99.90;;;;;;8395121;28;20493;-71
2022/10/15 16:48:12;;;;;;;2.47;1.90;;;14.10;99.90;;;;;;8408756;28;20332;-70
2022/10/15 16:52:13;;;;;;;5.03;3.93;;;14.00;99.90;;;;;;8408256;28;20204;-70
2022/10/15 16:56:26;;;;;;;29.37;16.83;;;13.90;99.90;;;;;;8373538;28;20307;-69
2022/10/15 17:00:27;;;;;;;45.80;25.77;;;13.70;99.90;;;;;;8405171;28;20184;-69
2022/10/15 17:04:28;;;;;;;29.67;17.13;;;13.60;99.90;;;;;;8389632;28;20346;-69
2022/10/15 17:08:41;;;;;;;15.80;9.60;;;13.40;99.90;;;;;;8395316;28;20498;-69
2022/10/15 17:12:41;;;;;;;8.63;5.60;;;13.20;99.90;;;;;;8397981;28;20541;-70
2022/10/15 17:16:51;;;;;;;4.83;3.70;;;12.90;99.90;;;;;;8413995;28;20272;-69
2022/10/15 17:20:51;;;;;;;4.63;2.70;;;12.80;99.90;;;;;;8397824;28;20184;-69
2022/10/15 17:24:52;;;;;;;2.97;2.20;;;12.60;99.90;;;;;;8395756;28;20488;-69
2022/10/15 17:28:53;;;;;;;3.30;2.60;;;12.40;99.90;;;;;;8413237;28;20561;-69
2022/10/15 17:32:54;;;;;;;3.80;3.27;;;12.30;99.90;;;;;;8414133;28;20184;-69
2022/10/15 17:36:55;;;;;;;4.57;3.77;;;12.10;99.90;;;;;;8414776;28;20239;-69
2022/10/15 17:40:57;;;;;;;6.13;4.27;;;12.00;99.90;;;;;;8400115;28;20177;-69
2022/10/15 17:44:58;;;;;;;5.10;4.40;;;12.00;99.90;;;;;;8396122;28;20199;-70
2022/10/15 17:49:02;;;;;;;5.63;4.13;;;11.90;99.90;;;;;;8413623;28;20604;-69
2022/10/15 17:53:03;;;;;;;7.00;5.00;;;11.90;99.90;;;;;;8393136;28;20181;-69
2022/10/15 17:57:04;;;;;;;8.77;5.50;;;11.90;99.90;;;;;;8394296;28;20353;-70
2022/10/15 18:01:06;;;;;;;8.20;5.87;;;11.90;99.90;;;;;;8412548;28;20206;-69
2022/10/15 18:05:07;;;;;;;6.13;5.07;;;11.90;99.90;;;;;;8392045;28;20201;-69
2022/10/15 18:09:07;;;;;;;7.67;5.30;;;11.90;99.90;;;;;;8396350;28;20207;-69
2022/10/15 18:13:08;;;;;;;6.57;4.67;;;11.80;99.90;;;;;;8397575;28;20504;-69
2022/10/15 18:17:10;;;;;;;6.47;4.90;;;11.70;99.90;;;;;;8411745;28;20208;-70
2022/10/15 18:21:14;;;;;;;4.20;3.40;;;11.50;99.90;;;;;;8392746;28;20211;-71
2022/10/15 18:25:18;;;;;;;7.57;4.60;;;11.40;99.90;;;;;;8411340;28;20238;-69
2022/10/15 18:29:19;;;;;;;6.73;3.77;;;11.30;99.90;;;;;;8408330;28;20195;-70
2022/10/15 18:33:20;;;;;;;6.93;4.43;;;11.20;99.90;;;;;;8409784;28;20220;-70
2022/10/15 18:37:21;;;;;;;6.13;4.40;;;11.20;99.90;;;;;;8390759;28;20216;-69
2022/10/15 18:41:24;;;;;;;5.73;4.50;;;11.10;99.90;;;;;;8395327;28;20207;-69
2022/10/15 18:45:25;;;;;;;7.17;4.57;;;11.10;99.90;;;;;;8410073;28;20185;-69
2022/10/15 18:49:26;;;;;;;6.50;4.67;;;11.00;99.90;;;;;;8410803;28;20303;-70
2022/10/15 18:53:27;;;;;;;9.50;5.97;;;10.90;99.90;;;;;;8411734;28;20199;-70
2022/10/15 18:57:28;;;;;;;10.77;6.53;;;10.80;99.90;;;;;;8403652;28;20212;-74
2022/10/15 19:01:34;;;;;;;9.97;6.60;;;10.70;99.90;;;;;;8378567;28;20196;-69
2022/10/15 19:05:37;;;;;;;7.90;5.63;;;10.70;99.90;;;;;;8405868;28;20253;-69
2022/10/15 19:09:38;;;;;;;6.10;4.53;;;10.70;99.90;;;;;;8411652;28;20243;-69
2022/10/15 19:13:39;;;;;;;5.77;4.13;;;10.80;99.90;;;;;;8395598;28;20256;-70
2022/10/15 19:17:40;;;;;;;4.43;3.70;;;11.00;99.90;;;;;;8392362;28;20211;-69
2022/10/15 19:21:42;;;;;;;5.93;4.30;;;11.20;99.90;;;;;;8393947;28;20272;-70
2022/10/15 19:25:43;;;;;;;7.10;5.17;;;11.40;99.90;;;;;;8409188;28;21777;-70
2022/10/15 19:29:44;;;;;;;7.93;5.63;;;11.60;99.90;;;;;;8408942;28;20215;-70
2022/10/15 19:33:45;;;;;;;7.60;4.93;;;11.80;99.90;;;;;;8409002;28;20191;-71
2022/10/15 19:37:46;;;;;;;8.20;5.43;;;11.90;99.90;;;;;;8409612;28;20238;-70
2022/10/15 19:41:49;;;;;;;6.07;4.60;;;11.90;99.90;;;;;;8409567;28;20188;-70
2022/10/15 19:45:49;;;;;;;6.60;5.53;;;11.80;99.90;;;;;;8410411;28;20187;-70
2022/10/15 19:49:53;;;;;;;7.80;5.53;;;11.80;99.90;;;;;;8408814;28;20263;-70
2022/10/15 19:53:55;;;;;;;8.80;5.40;;;11.70;99.90;;;;;;8387668;28;20279;-70
2022/10/15 19:57:56;;;;;;;9.13;5.47;;;11.70;99.90;;;;;;8405388;28;20208;-70
2022/10/15 20:01:56;;;;;;;7.60;5.80;;;11.60;99.90;;;;;;8388649;28;20203;-70
2022/10/15 20:05:57;;;;;;;7.57;5.73;;;11.60;99.90;;;;;;8407087;28;20204;-71
2022/10/15 20:09:58;;;;;;;9.93;6.03;;;11.60;99.90;;;;;;8391807;28;20200;-71
2022/10/15 20:14:00;;;;;;;8.70;6.40;;;11.60;99.90;;;;;;8394097;28;20192;-69
2022/10/15 20:18:01;;;;;;;9.83;6.83;;;11.70;99.90;;;;;;8408480;28;20216;-71
2022/10/15 20:22:01;;;;;;;9.37;6.30;;;11.70;99.90;;;;;;8391689;28;20199;-71
2022/10/15 20:26:07;;;;;;;9.23;7.00;;;11.60;99.90;;;;;;8385410;28;20187;-71
2022/10/15 20:30:10;;;;;;;9.30;7.40;;;11.60;99.90;;;;;;8391983;28;20263;-70
2022/10/15 20:34:11;;;;;;;8.57;7.33;;;11.60;99.90;;;;;;8406468;28;20185;-71
2022/10/15 20:38:12;;;;;;;8.67;6.80;;;11.60;99.90;;;;;;8407904;28;20303;-72
2022/10/15 20:42:12;;;;;;;8.27;6.50;;;11.60;99.90;;;;;;8390866;28;20198;-73
2022/10/15 20:46:24;;;;;;;8.17;6.50;;;11.50;99.90;;;;;;8390452;28;20284;-71
2022/10/15 20:50:29;;;;;;;9.57;6.70;;;11.50;99.90;;;;;;8394894;28;20256;-71
2022/10/15 20:54:35;;;;;;;8.90;7.10;;;11.40;99.90;;;;;;8411358;28;20280;-70
2022/10/15 20:58:36;;;;;;;9.13;7.00;;;11.50;99.90;;;;;;8408402;28;20505;-71
2022/10/15 21:02:37;;;;;;;8.90;7.17;;;11.40;99.90;;;;;;8412173;28;20200;-71
2022/10/15 21:06:40;;;;;;;9.00;7.60;;;11.40;99.90;;;;;;8410261;28;20184;-71